sensor_id;sensor_type;location;lat;lon;timestamp;P1;durP1;ratioP1;P2;durP2;ratioP2
53714;SDS011;39608;55.630;37.864;2023-10-19T00:04:35;6.30;;;3.63;;
53714;SDS011;39608;55.630;37.864;2023-10-19T00:09:39;7.55;;;4.22;;
53714;SDS011;39608;55.630;37.864;2023-10-19T00:14:46;5.18;;;3.42;;
53714;SDS011;39608;55.630;37.864;2023-10-19T00:19:49;5.32;;;3.50;;
53714;SDS011;39608;55.630;37.864;2023-10-19T00:25:20;8.13;;;4.47;;
53714;SDS011;39608;55.630;37.864;2023-10-19T00:30:23;4.00;;;3.42;;
53714;SDS011;39608;55.630;37.864;2023-10-19T00:35:33;6.85;;;3.85;;
53714;SDS011;39608;55.630;37.864;2023-10-19T00:40:37;4.95;;;3.58;;
53714;SDS011;39608;55.630;37.864;2023-10-19T00:45:41;5.07;;;3.10;;
53714;SDS011;39608;55.630;37.864;2023-10-19T00:50:46;4.78;;;3.30;;
53714;SDS011;39608;55.630;37.864;2023-10-19T00:55:55;5.35;;;3.47;;
53714;SDS011;39608;55.630;37.864;2023-10-19T01:01:01;7.47;;;3.90;;
53714;SDS011;39608;55.630;37.864;2023-10-19T01:06:06;6.78;;;3.55;;
53714;SDS011;39608;55.630;37.864;2023-10-19T01:11:14;5.75;;;3.42;;
53714;SDS011;39608;55.630;37.864;2023-10-19T01:16:20;5.57;;;3.60;;
53714;SDS011;39608;55.630;37.864;2023-10-19T01:21:22;4.68;;;3.55;;
53714;SDS011;39608;55.630;37.864;2023-10-19T01:26:40;6.43;;;4.63;;
53714;SDS011;39608;55.630;37.864;2023-10-19T01:31:42;7.60;;;3.53;;
53714;SDS011;39608;55.630;37.864;2023-10-19T01:36:56;5.40;;;3.85;;
53714;SDS011;39608;55.630;37.864;2023-10-19T01:42:04;4.47;;;2.73;;
53714;SDS011;39608;55.630;37.864;2023-10-19T01:47:08;3.75;;;2.85;;
53714;SDS011;39608;55.630;37.864;2023-10-19T01:52:11;5.25;;;3.42;;
53714;SDS011;39608;55.630;37.864;2023-10-19T01:57:14;5.38;;;2.83;;
53714;SDS011;39608;55.630;37.864;2023-10-19T02:02:16;7.03;;;4.00;;
53714;SDS011;39608;55.630;37.864;2023-10-19T02:07:22;5.13;;;3.45;;
53714;SDS011;39608;55.630;37.864;2023-10-19T02:12:31;4.95;;;3.80;;
53714;SDS011;39608;55.630;37.864;2023-10-19T02:17:35;8.30;;;3.75;;
53714;SDS011;39608;55.630;37.864;2023-10-19T02:22:37;5.10;;;3.85;;
53714;SDS011;39608;55.630;37.864;2023-10-19T02:27:40;6.45;;;4.32;;
53714;SDS011;39608;55.630;37.864;2023-10-19T02:32:45;8.20;;;3.67;;
53714;SDS011;39608;55.630;37.864;2023-10-19T02:37:48;4.60;;;3.35;;
53714;SDS011;39608;55.630;37.864;2023-10-19T02:43:01;3.42;;;2.60;;
53714;SDS011;39608;55.630;37.864;2023-10-19T02:48:04;4.80;;;3.67;;
53714;SDS011;39608;55.630;37.864;2023-10-19T02:53:12;6.80;;;4.88;;
53714;SDS011;39608;55.630;37.864;2023-10-19T02:58:15;7.22;;;5.15;;
53714;SDS011;39608;55.630;37.864;2023-10-19T03:03:17;6.90;;;4.45;;
53714;SDS011;39608;55.630;37.864;2023-10-19T03:08:19;6.22;;;4.93;;
53714;SDS011;39608;55.630;37.864;2023-10-19T03:13:25;9.77;;;4.88;;
53714;SDS011;39608;55.630;37.864;2023-10-19T03:18:28;6.07;;;4.85;;
53714;SDS011;39608;55.630;37.864;2023-10-19T03:23:30;9.80;;;6.00;;
53714;SDS011;39608;55.630;37.864;2023-10-19T03:28:36;7.70;;;5.70;;
53714;SDS011;39608;55.630;37.864;2023-10-19T03:33:38;6.78;;;4.40;;
53714;SDS011;39608;55.630;37.864;2023-10-19T03:38:41;6.57;;;4.70;;
53714;SDS011;39608;55.630;37.864;2023-10-19T03:43:51;11.63;;;4.70;;
53714;SDS011;39608;55.630;37.864;2023-10-19T03:48:55;8.77;;;5.43;;
53714;SDS011;39608;55.630;37.864;2023-10-19T03:54:04;8.85;;;6.18;;
53714;SDS011;39608;55.630;37.864;2023-10-19T03:59:11;8.57;;;7.00;;
53714;SDS011;39608;55.630;37.864;2023-10-19T04:04:14;11.55;;;8.63;;
53714;SDS011;39608;55.630;37.864;2023-10-19T04:09:19;9.15;;;5.97;;
53714;SDS011;39608;55.630;37.864;2023-10-19T04:14:30;9.73;;;6.80;;
53714;SDS011;39608;55.630;37.864;2023-10-19T04:19:32;9.57;;;6.78;;
53714;SDS011;39608;55.630;37.864;2023-10-19T04:24:37;9.50;;;6.28;;
53714;SDS011;39608;55.630;37.864;2023-10-19T04:29:41;8.95;;;5.35;;
53714;SDS011;39608;55.630;37.864;2023-10-19T04:34:45;7.55;;;5.82;;
53714;SDS011;39608;55.630;37.864;2023-10-19T04:39:47;8.38;;;5.13;;
53714;SDS011;39608;55.630;37.864;2023-10-19T04:44:52;6.78;;;5.95;;
53714;SDS011;39608;55.630;37.864;2023-10-19T04:49:55;9.30;;;5.57;;
53714;SDS011;39608;55.630;37.864;2023-10-19T04:54:58;9.43;;;5.47;;
53714;SDS011;39608;55.630;37.864;2023-10-19T05:00:04;8.32;;;5.15;;
53714;SDS011;39608;55.630;37.864;2023-10-19T05:05:08;8.68;;;5.63;;
53714;SDS011;39608;55.630;37.864;2023-10-19T05:10:10;16.23;;;7.15;;
53714;SDS011;39608;55.630;37.864;2023-10-19T05:15:15;12.73;;;7.40;;
53714;SDS011;39608;55.630;37.864;2023-10-19T05:20:19;10.38;;;7.43;;
53714;SDS011;39608;55.630;37.864;2023-10-19T05:25:21;16.55;;;9.70;;
53714;SDS011;39608;55.630;37.864;2023-10-19T05:30:25;14.15;;;8.82;;
53714;SDS011;39608;55.630;37.864;2023-10-19T05:35:33;13.32;;;8.88;;
53714;SDS011;39608;55.630;37.864;2023-10-19T05:40:40;11.20;;;6.45;;
53714;SDS011;39608;55.630;37.864;2023-10-19T05:45:44;9.10;;;6.93;;
53714;SDS011;39608;55.630;37.864;2023-10-19T05:50:50;12.30;;;6.82;;
53714;SDS011;39608;55.630;37.864;2023-10-19T05:55:52;8.35;;;6.47;;
53714;SDS011;39608;55.630;37.864;2023-10-19T06:00:59;10.45;;;7.07;;
53714;SDS011;39608;55.630;37.864;2023-10-19T06:06:01;10.50;;;5.97;;
53714;SDS011;39608;55.630;37.864;2023-10-19T06:11:03;9.02;;;6.45;;
53714;SDS011;39608;55.630;37.864;2023-10-19T06:16:07;9.52;;;6.50;;
53714;SDS011;39608;55.630;37.864;2023-10-19T06:21:08;9.02;;;6.57;;
53714;SDS011;39608;55.630;37.864;2023-10-19T06:26:12;12.02;;;5.93;;
53714;SDS011;39608;55.630;37.864;2023-10-19T06:31:18;9.20;;;6.43;;
53714;SDS011;39608;55.630;37.864;2023-10-19T06:36:20;7.32;;;5.90;;
53714;SDS011;39608;55.630;37.864;2023-10-19T06:41:22;11.55;;;6.18;;
53714;SDS011;39608;55.630;37.864;2023-10-19T06:46:26;9.88;;;7.32;;
53714;SDS011;39608;55.630;37.864;2023-10-19T06:51:28;6.55;;;4.68;;
53714;SDS011;39608;55.630;37.864;2023-10-19T06:56:30;10.85;;;6.75;;
53714;SDS011;39608;55.630;37.864;2023-10-19T07:01:34;12.82;;;4.78;;
53714;SDS011;39608;55.630;37.864;2023-10-19T07:06:36;7.57;;;3.85;;
53714;SDS011;39608;55.630;37.864;2023-10-19T07:11:38;5.53;;;4.15;;
53714;SDS011;39608;55.630;37.864;2023-10-19T07:16:42;5.55;;;4.10;;
53714;SDS011;39608;55.630;37.864;2023-10-19T07:21:44;8.13;;;4.00;;
53714;SDS011;39608;55.630;37.864;2023-10-19T07:26:49;4.68;;;3.40;;
53714;SDS011;39608;55.630;37.864;2023-10-19T07:32:06;4.18;;;3.58;;
53714;SDS011;39608;55.630;37.864;2023-10-19T07:37:11;4.13;;;3.13;;
53714;SDS011;39608;55.630;37.864;2023-10-19T07:42:15;7.38;;;3.35;;
53714;SDS011;39608;55.630;37.864;2023-10-19T07:47:19;4.47;;;3.10;;
53714;SDS011;39608;55.630;37.864;2023-10-19T07:52:22;3.45;;;2.60;;
53714;SDS011;39608;55.630;37.864;2023-10-19T07:57:24;3.50;;;3.20;;
53714;SDS011;39608;55.630;37.864;2023-10-19T08:02:28;5.50;;;3.20;;
53714;SDS011;39608;55.630;37.864;2023-10-19T08:07:35;7.28;;;4.30;;
53714;SDS011;39608;55.630;37.864;2023-10-19T08:12:39;9.88;;;3.47;;
53714;SDS011;39608;55.630;37.864;2023-10-19T08:17:45;6.45;;;2.85;;
53714;SDS011;39608;55.630;37.864;2023-10-19T08:27:52;3.95;;;2.92;;
53714;SDS011;39608;55.630;37.864;2023-10-19T08:32:59;3.53;;;2.67;;
53714;SDS011;39608;55.630;37.864;2023-10-19T08:38:02;4.57;;;2.60;;
53714;SDS011;39608;55.630;37.864;2023-10-19T08:43:19;2.35;;;1.80;;
53714;SDS011;39608;55.630;37.864;2023-10-19T08:48:23;3.53;;;2.08;;
53714;SDS011;39608;55.630;37.864;2023-10-19T08:53:25;2.20;;;1.92;;
53714;SDS011;39608;55.630;37.864;2023-10-19T08:58:40;11.07;;;1.80;;
53714;SDS011;39608;55.630;37.864;2023-10-19T09:03:43;1.73;;;1.35;;
53714;SDS011;39608;55.630;37.864;2023-10-19T09:08:47;2.08;;;1.70;;
53714;SDS011;39608;55.630;37.864;2023-10-19T09:13:50;2.55;;;2.20;;
53714;SDS011;39608;55.630;37.864;2023-10-19T09:18:54;2.72;;;2.15;;
53714;SDS011;39608;55.630;37.864;2023-10-19T09:23:57;3.40;;;2.00;;
53714;SDS011;39608;55.630;37.864;2023-10-19T09:28:59;2.35;;;1.73;;
53714;SDS011;39608;55.630;37.864;2023-10-19T09:34:08;2.78;;;1.65;;
53714;SDS011;39608;55.630;37.864;2023-10-19T09:39:11;4.88;;;1.20;;
53714;SDS011;39608;55.630;37.864;2023-10-19T09:44:13;3.95;;;1.02;;
53714;SDS011;39608;55.630;37.864;2023-10-19T09:49:20;2.92;;;0.65;;
53714;SDS011;39608;55.630;37.864;2023-10-19T09:54:26;1.85;;;1.00;;
53714;SDS011;39608;55.630;37.864;2023-10-19T09:59:34;1.75;;;1.33;;
53714;SDS011;39608;55.630;37.864;2023-10-19T10:04:43;4.72;;;1.85;;
53714;SDS011;39608;55.630;37.864;2023-10-19T10:09:52;3.85;;;2.40;;
53714;SDS011;39608;55.630;37.864;2023-10-19T10:14:57;3.28;;;2.15;;
53714;SDS011;39608;55.630;37.864;2023-10-19T10:25:29;2.58;;;1.20;;
53714;SDS011;39608;55.630;37.864;2023-10-19T10:30:32;4.97;;;1.75;;
53714;SDS011;39608;55.630;37.864;2023-10-19T10:35:55;10.45;;;2.85;;
53714;SDS011;39608;55.630;37.864;2023-10-19T10:40:59;12.57;;;2.80;;
53714;SDS011;39608;55.630;37.864;2023-10-19T10:46:04;5.97;;;1.42;;
53714;SDS011;39608;55.630;37.864;2023-10-19T10:51:14;5.07;;;1.52;;
53714;SDS011;39608;55.630;37.864;2023-10-19T10:56:19;3.90;;;1.95;;
53714;SDS011;39608;55.630;37.864;2023-10-19T11:01:28;3.17;;;1.55;;
53714;SDS011;39608;55.630;37.864;2023-10-19T11:06:33;1.83;;;1.58;;
53714;SDS011;39608;55.630;37.864;2023-10-19T11:11:49;10.85;;;2.25;;
53714;SDS011;39608;55.630;37.864;2023-10-19T11:16:52;2.17;;;1.58;;
53714;SDS011;39608;55.630;37.864;2023-10-19T11:21:54;6.40;;;2.35;;
53714;SDS011;39608;55.630;37.864;2023-10-19T11:26:59;5.13;;;2.45;;
53714;SDS011;39608;55.630;37.864;2023-10-19T11:32:01;2.13;;;1.50;;
53714;SDS011;39608;55.630;37.864;2023-10-19T11:37:06;2.53;;;1.60;;
53714;SDS011;39608;55.630;37.864;2023-10-19T11:42:09;3.08;;;1.40;;
53714;SDS011;39608;55.630;37.864;2023-10-19T11:47:12;1.42;;;1.13;;
53714;SDS011;39608;55.630;37.864;2023-10-19T11:52:15;1.73;;;1.10;;
53714;SDS011;39608;55.630;37.864;2023-10-19T11:57:20;3.00;;;1.45;;
53714;SDS011;39608;55.630;37.864;2023-10-19T12:02:22;4.38;;;1.55;;
53714;SDS011;39608;55.630;37.864;2023-10-19T12:07:24;9.10;;;2.72;;
53714;SDS011;39608;55.630;37.864;2023-10-19T12:12:28;5.55;;;2.40;;
53714;SDS011;39608;55.630;37.864;2023-10-19T12:17:30;6.57;;;2.30;;
53714;SDS011;39608;55.630;37.864;2023-10-19T12:22:32;5.40;;;1.63;;
53714;SDS011;39608;55.630;37.864;2023-10-19T12:27:39;4.13;;;1.40;;
53714;SDS011;39608;55.630;37.864;2023-10-19T12:32:53;1.95;;;1.25;;
53714;SDS011;39608;55.630;37.864;2023-10-19T12:37:55;2.10;;;1.00;;
53714;SDS011;39608;55.630;37.864;2023-10-19T12:42:58;3.30;;;1.25;;
53714;SDS011;39608;55.630;37.864;2023-10-19T12:48:04;2.60;;;1.73;;
53714;SDS011;39608;55.630;37.864;2023-10-19T12:53:07;1.58;;;1.27;;
53714;SDS011;39608;55.630;37.864;2023-10-19T12:58:11;2.05;;;1.42;;
53714;SDS011;39608;55.630;37.864;2023-10-19T13:03:16;8.30;;;1.90;;
53714;SDS011;39608;55.630;37.864;2023-10-19T13:08:18;5.90;;;1.65;;
53714;SDS011;39608;55.630;37.864;2023-10-19T13:13:22;4.95;;;2.13;;
53714;SDS011;39608;55.630;37.864;2023-10-19T13:18:25;4.20;;;2.17;;
53714;SDS011;39608;55.630;37.864;2023-10-19T13:23:31;3.40;;;1.80;;
53714;SDS011;39608;55.630;37.864;2023-10-19T13:28:35;2.13;;;1.30;;
53714;SDS011;39608;55.630;37.864;2023-10-19T13:33:38;2.10;;;1.70;;
53714;SDS011;39608;55.630;37.864;2023-10-19T13:38:41;5.47;;;2.20;;
53714;SDS011;39608;55.630;37.864;2023-10-19T13:43:45;4.95;;;2.00;;
53714;SDS011;39608;55.630;37.864;2023-10-19T13:48:59;12.70;;;2.47;;
53714;SDS011;39608;55.630;37.864;2023-10-19T13:54:05;9.70;;;2.60;;
53714;SDS011;39608;55.630;37.864;2023-10-19T13:59:11;12.50;;;3.10;;
53714;SDS011;39608;55.630;37.864;2023-10-19T14:04:14;9.88;;;2.83;;
53714;SDS011;39608;55.630;37.864;2023-10-19T14:09:16;9.77;;;2.20;;
53714;SDS011;39608;55.630;37.864;2023-10-19T14:14:20;3.90;;;2.13;;
53714;SDS011;39608;55.630;37.864;2023-10-19T14:19:26;4.68;;;2.42;;
53714;SDS011;39608;55.630;37.864;2023-10-19T14:24:29;9.23;;;2.80;;
53714;SDS011;39608;55.630;37.864;2023-10-19T14:29:33;3.65;;;2.20;;
53714;SDS011;39608;55.630;37.864;2023-10-19T14:34:38;5.03;;;2.20;;
53714;SDS011;39608;55.630;37.864;2023-10-19T14:39:42;2.50;;;1.83;;
53714;SDS011;39608;55.630;37.864;2023-10-19T14:44:46;1.73;;;1.63;;
53714;SDS011;39608;55.630;37.864;2023-10-19T14:49:48;2.72;;;2.10;;
53714;SDS011;39608;55.630;37.864;2023-10-19T14:54:50;3.58;;;2.20;;
53714;SDS011;39608;55.630;37.864;2023-10-19T14:59:54;5.18;;;2.78;;
53714;SDS011;39608;55.630;37.864;2023-10-19T15:04:56;3.65;;;2.95;;
53714;SDS011;39608;55.630;37.864;2023-10-19T15:09:58;4.90;;;2.80;;
53714;SDS011;39608;55.630;37.864;2023-10-19T15:15:06;5.20;;;3.20;;
53714;SDS011;39608;55.630;37.864;2023-10-19T15:20:09;6.65;;;3.60;;
53714;SDS011;39608;55.630;37.864;2023-10-19T15:25:13;7.97;;;4.68;;
53714;SDS011;39608;55.630;37.864;2023-10-19T15:35:24;12.60;;;8.93;;
53714;SDS011;39608;55.630;37.864;2023-10-19T15:40:27;18.48;;;10.35;;
53714;SDS011;39608;55.630;37.864;2023-10-19T15:45:32;7.18;;;4.55;;
53714;SDS011;39608;55.630;37.864;2023-10-19T15:50:40;8.25;;;4.55;;
53714;SDS011;39608;55.630;37.864;2023-10-19T15:55:42;7.07;;;4.18;;
53714;SDS011;39608;55.630;37.864;2023-10-19T16:00:45;4.90;;;3.28;;
53714;SDS011;39608;55.630;37.864;2023-10-19T16:05:47;4.47;;;3.03;;
53714;SDS011;39608;55.630;37.864;2023-10-19T16:10:49;3.47;;;2.70;;
53714;SDS011;39608;55.630;37.864;2023-10-19T16:15:53;4.15;;;2.58;;
53714;SDS011;39608;55.630;37.864;2023-10-19T16:20:55;3.90;;;1.98;;
53714;SDS011;39608;55.630;37.864;2023-10-19T16:25:58;4.00;;;2.75;;
53714;SDS011;39608;55.630;37.864;2023-10-19T16:31:05;3.97;;;2.85;;
53714;SDS011;39608;55.630;37.864;2023-10-19T16:36:07;6.90;;;2.50;;
53714;SDS011;39608;55.630;37.864;2023-10-19T16:41:09;5.78;;;3.67;;
53714;SDS011;39608;55.630;37.864;2023-10-19T16:46:13;5.45;;;3.70;;
53714;SDS011;39608;55.630;37.864;2023-10-19T16:51:15;7.25;;;3.78;;
53714;SDS011;39608;55.630;37.864;2023-10-19T16:56:17;4.25;;;3.42;;
53714;SDS011;39608;55.630;37.864;2023-10-19T17:01:20;7.80;;;4.13;;
53714;SDS011;39608;55.630;37.864;2023-10-19T17:06:22;7.78;;;4.28;;
53714;SDS011;39608;55.630;37.864;2023-10-19T17:11:24;6.28;;;3.85;;
53714;SDS011;39608;55.630;37.864;2023-10-19T17:16:28;7.97;;;4.35;;
53714;SDS011;39608;55.630;37.864;2023-10-19T17:21:30;9.38;;;4.45;;
53714;SDS011;39608;55.630;37.864;2023-10-19T17:26:35;6.40;;;4.65;;
53714;SDS011;39608;55.630;37.864;2023-10-19T17:31:39;5.70;;;3.58;;
53714;SDS011;39608;55.630;37.864;2023-10-19T17:36:41;6.88;;;3.67;;
53714;SDS011;39608;55.630;37.864;2023-10-19T17:41:45;6.47;;;3.60;;
53714;SDS011;39608;55.630;37.864;2023-10-19T17:46:49;8.13;;;4.05;;
53714;SDS011;39608;55.630;37.864;2023-10-19T17:51:52;5.72;;;3.58;;
53714;SDS011;39608;55.630;37.864;2023-10-19T17:56:55;8.70;;;4.50;;
53714;SDS011;39608;55.630;37.864;2023-10-19T18:01:58;12.30;;;4.28;;
53714;SDS011;39608;55.630;37.864;2023-10-19T18:07:01;8.35;;;4.32;;
53714;SDS011;39608;55.630;37.864;2023-10-19T18:12:03;7.47;;;4.72;;
53714;SDS011;39608;55.630;37.864;2023-10-19T18:17:07;7.38;;;4.38;;
53714;SDS011;39608;55.630;37.864;2023-10-19T18:22:15;7.95;;;4.78;;
53714;SDS011;39608;55.630;37.864;2023-10-19T18:27:17;10.15;;;5.35;;
53714;SDS011;39608;55.630;37.864;2023-10-19T18:32:20;11.82;;;6.15;;
53714;SDS011;39608;55.630;37.864;2023-10-19T18:37:22;13.55;;;5.50;;
53714;SDS011;39608;55.630;37.864;2023-10-19T18:42:25;7.97;;;4.45;;
53714;SDS011;39608;55.630;37.864;2023-10-19T18:47:28;7.38;;;4.22;;
53714;SDS011;39608;55.630;37.864;2023-10-19T18:52:30;8.45;;;4.80;;
53714;SDS011;39608;55.630;37.864;2023-10-19T18:57:33;9.57;;;4.10;;
53714;SDS011;39608;55.630;37.864;2023-10-19T19:02:36;8.80;;;4.20;;
53714;SDS011;39608;55.630;37.864;2023-10-19T19:07:39;8.80;;;4.50;;
53714;SDS011;39608;55.630;37.864;2023-10-19T19:12:41;7.10;;;4.57;;
53714;SDS011;39608;55.630;37.864;2023-10-19T19:17:45;9.55;;;4.93;;
53714;SDS011;39608;55.630;37.864;2023-10-19T19:22:48;10.07;;;3.85;;
53714;SDS011;39608;55.630;37.864;2023-10-19T19:27:50;6.82;;;3.88;;
53714;SDS011;39608;55.630;37.864;2023-10-19T19:32:53;7.47;;;3.47;;
53714;SDS011;39608;55.630;37.864;2023-10-19T19:37:55;10.20;;;4.07;;
53714;SDS011;39608;55.630;37.864;2023-10-19T19:42:57;7.22;;;4.15;;
53714;SDS011;39608;55.630;37.864;2023-10-19T19:48:01;8.23;;;4.20;;
53714;SDS011;39608;55.630;37.864;2023-10-19T19:53:04;8.85;;;3.78;;
53714;SDS011;39608;55.630;37.864;2023-10-19T19:58:09;9.20;;;3.50;;
53714;SDS011;39608;55.630;37.864;2023-10-19T20:03:13;7.25;;;3.97;;
53714;SDS011;39608;55.630;37.864;2023-10-19T20:08:15;8.35;;;4.35;;
53714;SDS011;39608;55.630;37.864;2023-10-19T20:13:18;6.70;;;3.97;;
53714;SDS011;39608;55.630;37.864;2023-10-19T20:18:22;12.05;;;5.50;;
53714;SDS011;39608;55.630;37.864;2023-10-19T20:23:24;9.60;;;4.88;;
53714;SDS011;39608;55.630;37.864;2023-10-19T20:28:26;14.00;;;4.45;;
53714;SDS011;39608;55.630;37.864;2023-10-19T20:33:30;8.45;;;3.65;;
53714;SDS011;39608;55.630;37.864;2023-10-19T20:38:38;6.50;;;3.60;;
53714;SDS011;39608;55.630;37.864;2023-10-19T20:43:40;7.72;;;3.60;;
53714;SDS011;39608;55.630;37.864;2023-10-19T20:48:45;7.20;;;3.95;;
53714;SDS011;39608;55.630;37.864;2023-10-19T20:53:47;8.18;;;4.63;;
53714;SDS011;39608;55.630;37.864;2023-10-19T20:58:49;8.32;;;3.60;;
53714;SDS011;39608;55.630;37.864;2023-10-19T21:03:52;7.68;;;3.63;;
53714;SDS011;39608;55.630;37.864;2023-10-19T21:08:55;6.18;;;3.60;;
53714;SDS011;39608;55.630;37.864;2023-10-19T21:13:59;9.00;;;3.30;;
53714;SDS011;39608;55.630;37.864;2023-10-19T21:19:02;6.07;;;3.70;;
53714;SDS011;39608;55.630;37.864;2023-10-19T21:24:05;6.25;;;3.50;;
53714;SDS011;39608;55.630;37.864;2023-10-19T21:29:16;7.50;;;4.32;;
53714;SDS011;39608;55.630;37.864;2023-10-19T21:34:19;9.23;;;4.90;;
53714;SDS011;39608;55.630;37.864;2023-10-19T21:39:21;7.90;;;4.75;;
53714;SDS011;39608;55.630;37.864;2023-10-19T21:44:23;14.10;;;4.55;;
53714;SDS011;39608;55.630;37.864;2023-10-19T21:49:32;14.52;;;4.35;;
53714;SDS011;39608;55.630;37.864;2023-10-19T21:54:34;6.20;;;3.58;;
53714;SDS011;39608;55.630;37.864;2023-10-19T21:59:36;6.80;;;4.10;;
53714;SDS011;39608;55.630;37.864;2023-10-19T22:04:41;10.18;;;4.13;;
53714;SDS011;39608;55.630;37.864;2023-10-19T22:09:44;9.98;;;4.20;;
53714;SDS011;39608;55.630;37.864;2023-10-19T22:14:46;7.13;;;3.03;;
53714;SDS011;39608;55.630;37.864;2023-10-19T22:19:51;5.40;;;3.22;;
53714;SDS011;39608;55.630;37.864;2023-10-19T22:24:54;3.70;;;2.90;;
53714;SDS011;39608;55.630;37.864;2023-10-19T22:29:57;6.53;;;3.47;;
53714;SDS011;39608;55.630;37.864;2023-10-19T22:35:04;8.15;;;3.47;;
53714;SDS011;39608;55.630;37.864;2023-10-19T22:40:10;6.25;;;3.55;;
53714;SDS011;39608;55.630;37.864;2023-10-19T22:45:15;4.93;;;3.40;;
53714;SDS011;39608;55.630;37.864;2023-10-19T22:50:20;5.18;;;3.47;;
53714;SDS011;39608;55.630;37.864;2023-10-19T22:55:22;6.03;;;3.60;;
53714;SDS011;39608;55.630;37.864;2023-10-19T23:00:24;5.97;;;3.60;;
53714;SDS011;39608;55.630;37.864;2023-10-19T23:05:29;8.18;;;4.43;;
53714;SDS011;39608;55.630;37.864;2023-10-19T23:10:31;8.10;;;4.45;;
53714;SDS011;39608;55.630;37.864;2023-10-19T23:15:33;5.63;;;3.88;;
53714;SDS011;39608;55.630;37.864;2023-10-19T23:20:41;12.37;;;4.57;;
53714;SDS011;39608;55.630;37.864;2023-10-19T23:25:50;16.90;;;6.10;;
53714;SDS011;39608;55.630;37.864;2023-10-19T23:30:55;10.32;;;6.05;;
53714;SDS011;39608;55.630;37.864;2023-10-19T23:36:03;21.38;;;8.32;;
53714;SDS011;39608;55.630;37.864;2023-10-19T23:41:06;20.60;;;9.27;;
53714;SDS011;39608;55.630;37.864;2023-10-19T23:46:08;21.67;;;9.80;;
53714;SDS011;39608;55.630;37.864;2023-10-19T23:51:19;22.60;;;9.95;;
53714;SDS011;39608;55.630;37.864;2023-10-19T23:56:21;23.40;;;9.45;;
